createdAt,value
2017-11-20T00:00:54.108Z,8.30
2017-11-20T00:01:54.056Z,8.10
2017-11-20T00:02:54.026Z,8.40
2017-11-20T00:03:53.965Z,8.10
2017-11-20T00:04:53.923Z,9.20
2017-11-20T00:05:53.903Z,7.40
2017-11-20T00:06:53.855Z,8.60
2017-11-20T00:07:53.800Z,9.10
2017-11-20T00:08:53.780Z,6.60
2017-11-20T00:09:53.731Z,5.20
2017-11-20T00:10:53.680Z,8.10
2017-11-20T00:11:53.649Z,6.10
2017-11-20T00:12:53.600Z,7.30
2017-11-20T00:13:53.547Z,9.40
2017-11-20T00:14:53.505Z,7.80
2017-11-20T00:15:53.480Z,7.60
2017-11-20T00:16:53.419Z,6.40
2017-11-20T00:17:53.383Z,7.50
2017-11-20T00:18:53.331Z,8.30
2017-11-20T00:19:53.302Z,9.70
2017-11-20T00:20:53.250Z,6.90
2017-11-20T00:21:53.213Z,8.30
2017-11-20T00:22:53.165Z,9.40
2017-11-20T00:23:53.145Z,8.90
2017-11-20T00:24:53.088Z,9.40
2017-11-20T00:25:53.039Z,8.20
2017-11-20T00:26:52.998Z,8.20
2017-11-20T00:27:52.958Z,9.20
2017-11-20T00:28:52.917Z,7.60
2017-11-20T00:29:52.875Z,9.70
2017-11-20T00:30:52.831Z,9.00
2017-11-20T00:31:52.792Z,8.90
2017-11-20T00:32:52.748Z,5.60
2017-11-20T00:33:52.732Z,9.90
2017-11-20T00:34:52.660Z,11.80
2017-11-20T00:35:52.622Z,8.40
2017-11-20T00:36:52.583Z,9.50
2017-11-20T00:37:52.553Z,7.50
2017-11-20T00:38:52.497Z,10.60
2017-11-20T00:39:52.451Z,9.60
2017-11-20T00:40:52.405Z,8.10
2017-11-20T00:41:52.381Z,9.80
2017-11-20T00:42:52.322Z,8.30
2017-11-20T00:43:52.281Z,6.50
2017-11-20T00:44:52.238Z,8.60
2017-11-20T00:45:52.201Z,9.20
2017-11-20T00:46:52.155Z,8.70
2017-11-20T00:47:52.118Z,7.70
2017-11-20T00:48:52.069Z,7.90
2017-11-20T00:49:52.028Z,10.10
2017-11-20T00:50:51.986Z,8.10
2017-11-20T00:51:51.943Z,9.50
2017-11-20T00:52:51.903Z,8.90
2017-11-20T00:53:51.864Z,5.60
2017-11-20T00:54:51.850Z,7.10
2017-11-20T00:55:51.789Z,6.90
2017-11-20T00:56:51.743Z,5.20
2017-11-20T00:57:51.720Z,12.10
2017-11-20T00:58:51.657Z,7.50
2017-11-20T00:59:51.614Z,7.00
2017-11-20T01:00:51.576Z,7.00
2017-11-20T01:01:51.535Z,7.90
2017-11-20T01:02:51.481Z,5.10
2017-11-20T01:03:51.443Z,7.60
2017-11-20T01:04:51.398Z,8.60
2017-11-20T01:05:51.354Z,8.60
2017-11-20T01:06:51.318Z,6.60
2017-11-20T01:07:51.269Z,7.50
2017-11-20T01:08:51.239Z,8.30
2017-11-20T01:09:51.185Z,9.10
2017-11-20T01:10:51.153Z,7.70
2017-11-20T01:11:51.101Z,8.00
2017-11-20T01:12:51.060Z,7.30
2017-11-20T01:13:51.016Z,6.10
2017-11-20T01:14:50.984Z,7.50
2017-11-20T01:15:50.943Z,8.90
2017-11-20T01:16:50.913Z,5.40
2017-11-20T01:17:50.849Z,7.60
2017-11-20T01:18:50.811Z,6.60
2017-11-20T01:19:50.774Z,7.60
2017-11-20T01:20:50.722Z,8.70
2017-11-20T01:21:50.682Z,8.20
2017-11-20T01:22:50.650Z,8.80
2017-11-20T01:23:50.595Z,7.20
2017-11-20T01:24:50.558Z,6.10
2017-11-20T01:25:50.525Z,8.10
2017-11-20T01:26:50.469Z,5.70
2017-11-20T01:27:50.435Z,8.00
2017-11-20T01:28:50.387Z,5.80
2017-11-20T01:29:50.341Z,5.80
2017-11-20T01:30:50.300Z,6.30
2017-11-20T01:31:50.264Z,6.20
2017-11-20T01:32:50.214Z,5.10
2017-11-20T01:33:50.178Z,7.40
2017-11-20T01:34:50.136Z,6.30
2017-11-20T01:35:50.091Z,9.80
2017-11-20T01:36:50.057Z,7.30
2017-11-20T01:37:50.020Z,5.20
2017-11-20T01:38:49.962Z,7.10
2017-11-20T01:39:49.924Z,6.40
2017-11-20T01:40:49.900Z,7.10
2017-11-20T01:41:49.858Z,8.10
2017-11-20T01:42:49.796Z,7.40
2017-11-20T01:43:49.764Z,4.10
2017-11-20T01:44:49.728Z,9.50
2017-11-20T01:45:49.679Z,6.00
2017-11-20T01:46:49.657Z,4.30
2017-11-20T01:47:49.593Z,4.10
2017-11-20T01:48:49.559Z,6.90
2017-11-20T01:49:49.505Z,8.00
2017-11-20T01:50:49.474Z,5.90
2017-11-20T01:51:49.418Z,4.90
2017-11-20T01:52:49.375Z,5.90
2017-11-20T01:53:49.328Z,5.30
2017-11-20T01:54:49.292Z,7.90
2017-11-20T01:55:49.246Z,7.20
2017-11-20T01:56:49.238Z,6.80
2017-11-20T01:57:49.164Z,5.50
2017-11-20T01:58:49.183Z,5.80
2017-11-20T01:59:49.080Z,5.60
2017-11-20T02:00:49.029Z,5.60
2017-11-20T02:01:48.989Z,6.40
2017-11-20T02:02:48.950Z,7.00
2017-11-20T02:03:48.907Z,4.60
2017-11-20T02:04:48.875Z,8.10
2017-11-20T02:05:48.833Z,6.80
2017-11-20T02:06:48.824Z,6.20
2017-11-20T02:07:48.746Z,4.60
2017-11-20T02:08:48.707Z,6.00
2017-11-20T02:09:48.661Z,4.70
2017-11-20T02:10:48.617Z,6.50
2017-11-20T02:11:48.570Z,9.30
2017-11-20T02:12:48.528Z,6.80
2017-11-20T02:13:48.483Z,7.60
2017-11-20T02:14:48.437Z,6.90
2017-11-20T02:15:48.395Z,5.80
2017-11-20T02:16:48.358Z,6.30
2017-11-20T02:17:48.320Z,5.10
2017-11-20T02:18:48.275Z,5.00
2017-11-20T02:19:48.232Z,6.50
2017-11-20T02:20:48.193Z,6.20
2017-11-20T02:21:48.143Z,9.40
2017-11-20T02:22:48.106Z,8.70
2017-11-20T02:23:48.058Z,6.70
2017-11-20T02:24:48.018Z,7.20
2017-11-20T02:25:47.973Z,8.00
2017-11-20T02:26:47.931Z,6.20
2017-11-20T02:27:47.887Z,6.20
2017-11-20T02:28:47.856Z,7.50
2017-11-20T02:29:47.802Z,5.90
2017-11-20T02:30:47.764Z,5.70
2017-11-20T02:31:47.723Z,7.00
2017-11-20T02:32:47.687Z,6.40
2017-11-20T02:33:47.635Z,6.70
2017-11-20T02:34:47.600Z,4.20
2017-11-20T02:35:47.555Z,5.80
2017-11-20T02:36:47.510Z,5.60
2017-11-20T02:37:47.472Z,5.50
2017-11-20T02:38:47.425Z,2.70
2017-11-20T02:39:47.382Z,11.30
2017-11-20T02:40:47.335Z,4.10
2017-11-20T02:41:47.297Z,5.00
2017-11-20T02:42:47.260Z,5.30
2017-11-20T02:43:47.211Z,6.30
2017-11-20T02:44:47.171Z,7.80
2017-11-20T02:45:47.129Z,6.20
2017-11-20T02:46:47.090Z,5.90
2017-11-20T02:47:47.043Z,4.10
2017-11-20T02:48:47.012Z,5.60
2017-11-20T02:49:46.974Z,7.40
2017-11-20T02:50:46.921Z,8.80
2017-11-20T02:51:46.876Z,6.20
2017-11-20T02:52:46.837Z,6.00
2017-11-20T02:53:46.786Z,6.00
2017-11-20T02:54:46.765Z,5.30
2017-11-20T02:55:46.703Z,4.80
2017-11-20T02:56:46.679Z,6.70
2017-11-20T02:57:46.617Z,6.40
2017-11-20T02:58:46.580Z,6.30
2017-11-20T02:59:46.544Z,4.90
2017-11-20T03:00:46.491Z,7.80
2017-11-20T03:01:46.452Z,5.60
2017-11-20T03:02:46.412Z,5.50
2017-11-20T03:03:46.364Z,5.90
2017-11-20T03:04:46.324Z,6.30
2017-11-20T03:05:46.279Z,5.70
2017-11-20T03:06:46.232Z,5.00
2017-11-20T03:07:46.198Z,6.40
2017-11-20T03:08:46.155Z,7.00
2017-11-20T03:09:46.109Z,5.90
2017-11-20T03:10:46.073Z,6.50
2017-11-20T03:11:46.034Z,5.80
2017-11-20T03:12:45.982Z,7.10
2017-11-20T03:13:45.946Z,7.90
2017-11-20T03:14:45.897Z,4.20
2017-11-20T03:15:45.856Z,6.20
2017-11-20T03:16:45.842Z,8.00
2017-11-20T03:17:45.771Z,9.10
2017-11-20T03:18:45.729Z,7.70
2017-11-20T03:19:45.691Z,9.40
2017-11-20T03:20:45.640Z,11.10
2017-11-20T03:21:45.601Z,5.80
2017-11-20T03:22:45.569Z,6.40
2017-11-20T03:23:45.520Z,10.70
2017-11-20T03:24:45.481Z,7.60
2017-11-20T03:25:45.451Z,11.20
2017-11-20T03:26:45.394Z,9.40
2017-11-20T03:27:45.357Z,12.60
2017-11-20T03:28:45.308Z,7.50
2017-11-20T03:29:45.283Z,9.80
2017-11-20T03:30:45.227Z,8.30
2017-11-20T03:31:45.183Z,7.90
2017-11-20T03:32:45.136Z,9.10
2017-11-20T03:33:45.097Z,10.20
2017-11-20T03:34:45.063Z,10.80
2017-11-20T03:35:45.013Z,13.40
2017-11-20T03:36:44.971Z,13.10
2017-11-20T03:37:44.929Z,13.10
2017-11-20T03:38:44.883Z,9.30
2017-11-20T03:39:44.840Z,9.50
2017-11-20T03:40:44.809Z,12.80
2017-11-20T03:41:44.760Z,9.20
2017-11-20T03:42:44.715Z,8.60
2017-11-20T03:43:44.691Z,11.90
2017-11-20T03:44:44.631Z,9.30
2017-11-20T03:45:44.613Z,14.40
2017-11-20T03:46:44.554Z,9.90
2017-11-20T03:47:44.521Z,7.30
2017-11-20T03:48:44.474Z,9.10
2017-11-20T03:49:44.427Z,9.90
2017-11-20T03:50:44.384Z,13.30
2017-11-20T03:51:44.351Z,9.40
2017-11-20T03:52:44.299Z,11.80
2017-11-20T03:53:44.263Z,8.70
2017-11-20T03:54:44.222Z,10.90
2017-11-20T03:55:44.183Z,7.30
2017-11-20T03:56:44.131Z,9.00
2017-11-20T03:57:44.090Z,9.20
2017-11-20T03:58:44.048Z,8.90
2017-11-20T03:59:44.008Z,8.60
2017-11-20T04:00:43.966Z,11.30
2017-11-20T04:01:43.922Z,12.20
2017-11-20T04:02:43.880Z,11.00
2017-11-20T04:03:43.858Z,7.60
2017-11-20T04:04:43.795Z,9.80
2017-11-20T04:05:43.767Z,7.10
2017-11-20T04:06:43.789Z,8.30
2017-11-20T04:07:43.674Z,11.30
2017-11-20T04:08:43.637Z,9.80
2017-11-20T04:09:43.589Z,10.60
2017-11-20T04:10:43.567Z,12.40
2017-11-20T04:11:43.511Z,10.20
2017-11-20T04:12:43.462Z,8.40
2017-11-20T04:13:43.430Z,8.70
2017-11-20T04:14:43.399Z,12.20
2017-11-20T04:15:43.349Z,8.80
2017-11-20T04:16:43.307Z,8.10
2017-11-20T04:17:43.268Z,10.20
2017-11-20T04:18:43.216Z,12.80
2017-11-20T04:19:43.194Z,9.30
2017-11-20T04:20:43.254Z,10.60
2017-11-20T04:21:43.088Z,10.70
2017-11-20T04:22:43.056Z,11.90
2017-11-20T04:23:43.017Z,9.40
2017-11-20T04:24:42.981Z,10.90
2017-11-20T04:25:42.930Z,11.00
2017-11-20T04:26:42.890Z,10.70
2017-11-20T04:27:42.843Z,11.90
2017-11-20T04:28:42.815Z,6.80
2017-11-20T04:29:42.766Z,8.90
2017-11-20T04:30:42.721Z,9.00
2017-11-20T04:31:42.679Z,8.10
2017-11-20T04:32:42.636Z,9.20
2017-11-20T04:33:42.605Z,10.80
2017-11-20T04:34:42.558Z,9.40
2017-11-20T04:35:42.547Z,8.90
2017-11-20T04:36:42.460Z,10.80
2017-11-20T04:37:42.475Z,6.50
2017-11-20T04:38:42.381Z,11.30
2017-11-20T04:39:42.343Z,9.60
2017-11-20T04:40:42.307Z,9.10
2017-11-20T04:41:42.256Z,7.70
2017-11-20T04:42:42.224Z,9.20
2017-11-20T04:43:42.186Z,11.00
2017-11-20T04:44:42.136Z,8.20
2017-11-20T04:45:42.106Z,8.70
2017-11-20T04:46:42.055Z,10.20
2017-11-20T04:47:42.007Z,11.00
2017-11-20T04:48:41.966Z,10.30
2017-11-20T04:49:41.927Z,8.80
2017-11-20T04:50:41.906Z,10.20
2017-11-20T04:51:41.852Z,10.20
2017-11-20T04:52:41.803Z,9.70
2017-11-20T04:53:41.762Z,11.20
2017-11-20T04:54:41.718Z,10.60
2017-11-20T04:55:41.679Z,10.80
2017-11-20T04:56:41.637Z,12.20
2017-11-20T04:57:41.596Z,10.30
2017-11-20T04:58:41.555Z,9.40
2017-11-20T04:59:41.516Z,11.20
2017-11-20T05:00:41.471Z,9.70
2017-11-20T05:01:41.430Z,14.40
2017-11-20T05:02:41.401Z,8.10
2017-11-20T05:03:41.349Z,9.50
2017-11-20T05:04:41.312Z,10.30
2017-11-20T05:05:41.272Z,10.30
2017-11-20T05:06:41.229Z,13.70
2017-11-20T05:07:41.180Z,13.00
2017-11-20T05:08:41.141Z,12.90
2017-11-20T05:09:41.116Z,10.50
2017-11-20T05:10:41.060Z,10.20
2017-11-20T05:11:41.025Z,8.20
2017-11-20T05:12:40.974Z,8.40
2017-11-20T05:13:40.933Z,6.80
2017-11-20T05:14:40.907Z,7.80
2017-11-20T05:15:40.867Z,11.50
2017-11-20T05:16:40.818Z,9.30
2017-11-20T05:17:40.779Z,12.20
2017-11-20T05:18:40.732Z,11.20
2017-11-20T05:19:40.700Z,10.20
2017-11-20T05:20:40.651Z,11.90
2017-11-20T05:21:40.611Z,8.60
2017-11-20T05:22:40.569Z,11.70
2017-11-20T05:23:40.530Z,9.20
2017-11-20T05:24:40.490Z,12.70
2017-11-20T05:25:40.444Z,10.90
2017-11-20T05:26:40.403Z,7.50
2017-11-20T05:27:40.363Z,10.80
2017-11-20T05:28:40.321Z,10.90
2017-11-20T05:29:40.281Z,9.90
2017-11-20T05:30:40.246Z,11.00
2017-11-20T05:31:40.202Z,10.10
2017-11-20T05:32:40.159Z,10.60
2017-11-20T05:33:40.113Z,12.00
2017-11-20T05:34:40.077Z,10.80
2017-11-20T05:35:40.036Z,10.80
2017-11-20T05:36:39.991Z,11.90
2017-11-20T05:37:39.951Z,8.90
2017-11-20T05:38:39.921Z,10.40
2017-11-20T05:39:39.871Z,14.90
2017-11-20T05:40:39.827Z,11.00
2017-11-20T05:41:39.790Z,10.00
2017-11-20T05:42:39.743Z,10.60
2017-11-20T05:43:39.705Z,9.20
2017-11-20T05:44:39.663Z,13.80
2017-11-20T05:45:39.621Z,10.40
2017-11-20T05:46:39.583Z,11.20
2017-11-20T05:47:39.536Z,11.20
2017-11-20T05:48:39.504Z,10.10
2017-11-20T05:49:39.449Z,14.60
2017-11-20T05:50:39.423Z,11.10
2017-11-20T05:51:39.376Z,11.40
2017-11-20T05:52:39.325Z,10.10
2017-11-20T05:53:39.318Z,13.80
2017-11-20T05:54:39.244Z,8.80
2017-11-20T05:55:39.207Z,12.30
2017-11-20T05:56:39.164Z,10.50
2017-11-20T05:57:39.121Z,11.90
2017-11-20T05:58:39.080Z,12.80
2017-11-20T05:59:39.040Z,11.20
2017-11-20T06:00:38.995Z,10.60
2017-11-20T06:01:38.958Z,11.00
2017-11-20T06:02:38.921Z,10.60
2017-11-20T06:03:38.889Z,7.00
2017-11-20T06:04:38.844Z,12.60
2017-11-20T06:05:38.797Z,11.20
2017-11-20T06:06:38.767Z,11.00
2017-11-20T06:07:38.707Z,14.00
2017-11-20T06:08:38.669Z,9.80
2017-11-20T06:09:38.627Z,8.60
2017-11-20T06:10:38.585Z,13.00
2017-11-20T06:11:38.544Z,10.60
2017-11-20T06:12:38.504Z,12.50
2017-11-20T06:13:38.463Z,9.60
2017-11-20T06:14:38.419Z,9.40
2017-11-20T06:15:38.383Z,9.90
2017-11-20T06:16:38.361Z,12.20
2017-11-20T06:17:38.301Z,11.50
2017-11-20T06:18:38.270Z,13.30
2017-11-20T06:19:38.216Z,14.20
2017-11-20T06:20:38.174Z,10.60
2017-11-20T06:21:38.145Z,12.40
2017-11-20T06:22:38.093Z,9.80
2017-11-20T06:23:38.062Z,7.00
2017-11-20T06:24:38.007Z,10.60
2017-11-20T06:25:37.987Z,10.60
2017-11-20T06:26:37.951Z,10.70
2017-11-20T06:27:37.886Z,13.00
2017-11-20T06:28:37.854Z,9.70
2017-11-20T06:29:37.802Z,10.80
2017-11-20T06:30:37.775Z,13.50
2017-11-20T06:31:37.725Z,11.40
2017-11-20T06:32:37.679Z,9.60
2017-11-20T06:33:37.640Z,13.50
2017-11-20T06:34:37.649Z,12.30
2017-11-20T06:35:37.607Z,12.30
2017-11-20T06:36:37.519Z,8.90
2017-11-20T06:37:37.482Z,12.60
2017-11-20T06:38:37.449Z,10.20
2017-11-20T06:39:37.394Z,10.80
2017-11-20T06:40:37.351Z,11.20
2017-11-20T06:41:37.326Z,10.20
2017-11-20T06:42:37.266Z,8.60
2017-11-20T06:43:37.241Z,9.40
2017-11-20T06:44:37.192Z,10.50
2017-11-20T06:45:37.169Z,9.20
2017-11-20T06:46:37.101Z,10.20
2017-11-20T06:47:37.063Z,9.60
2017-11-20T06:48:37.034Z,9.90
2017-11-20T06:49:37.001Z,10.40
2017-11-20T06:50:36.953Z,15.00
2017-11-20T06:51:36.911Z,11.40
2017-11-20T06:52:36.867Z,9.10
2017-11-20T06:53:36.815Z,13.80
2017-11-20T06:54:36.791Z,9.70
2017-11-20T06:55:36.749Z,10.20
2017-11-20T06:56:36.696Z,10.60
2017-11-20T06:57:36.651Z,11.20
2017-11-20T06:58:36.640Z,14.80
2017-11-20T06:59:36.570Z,11.30
2017-11-20T07:00:36.534Z,11.60
2017-11-20T07:01:36.525Z,11.00
2017-11-20T07:02:36.476Z,12.80
2017-11-20T07:03:36.414Z,14.80
2017-11-20T07:04:36.368Z,11.70
2017-11-20T07:05:36.329Z,11.80
2017-11-20T07:06:36.284Z,14.80
2017-11-20T07:07:36.971Z,12.80
2017-11-20T07:08:36.213Z,14.80
2017-11-20T07:09:36.165Z,12.70
2017-11-20T07:10:36.122Z,15.10
2017-11-20T07:11:36.079Z,8.10
2017-11-20T07:12:36.041Z,14.70
2017-11-20T07:13:35.994Z,11.90
2017-11-20T07:14:35.968Z,15.10
2017-11-20T07:15:35.912Z,14.70
2017-11-20T07:16:35.875Z,13.10
2017-11-20T07:17:35.829Z,14.00
2017-11-20T07:18:35.797Z,11.70
2017-11-20T07:19:35.746Z,12.60
2017-11-20T07:20:35.706Z,12.30
2017-11-20T07:21:35.664Z,14.10
2017-11-20T07:22:35.637Z,10.80
2017-11-20T07:23:35.593Z,15.50
2017-11-20T07:24:35.561Z,11.80
2017-11-20T07:25:35.514Z,14.20
2017-11-20T07:26:35.461Z,13.90
2017-11-20T07:27:35.424Z,13.40
2017-11-20T07:28:35.397Z,16.70
2017-11-20T07:29:35.337Z,17.20
2017-11-20T07:30:35.298Z,16.60
2017-11-20T07:31:35.304Z,16.10
2017-11-20T07:32:35.281Z,19.00
2017-11-20T07:33:35.213Z,19.40
2017-11-20T07:34:35.158Z,11.00
2017-11-20T07:35:35.125Z,14.70
2017-11-20T07:36:35.051Z,9.90
2017-11-20T07:37:35.037Z,15.20
2017-11-20T07:38:34.976Z,13.70
2017-11-20T07:39:34.937Z,15.90
2017-11-20T07:40:34.895Z,12.50
2017-11-20T07:41:34.844Z,17.40
2017-11-20T07:42:34.805Z,16.90
2017-11-20T07:43:34.771Z,12.00
2017-11-20T07:44:34.725Z,15.20
2017-11-20T07:45:34.689Z,14.60
2017-11-20T07:46:34.646Z,19.60
2017-11-20T07:47:34.605Z,18.50
2017-11-20T07:48:34.588Z,17.60
2017-11-20T07:49:34.537Z,14.60
2017-11-20T07:50:34.478Z,16.30
2017-11-20T07:51:34.448Z,17.60
2017-11-20T07:52:34.397Z,18.10
2017-11-20T07:53:34.357Z,15.20
2017-11-20T07:54:34.322Z,20.70
2017-11-20T07:55:34.307Z,18.10
2017-11-20T07:56:34.243Z,16.70
2017-11-20T07:57:34.191Z,16.70
2017-11-20T07:58:34.153Z,15.50
2017-11-20T07:59:34.109Z,19.50
2017-11-20T08:00:34.082Z,19.60
2017-11-20T08:01:34.031Z,17.40
2017-11-20T08:02:33.991Z,25.30
2017-11-20T08:03:33.953Z,20.00
2017-11-20T08:04:33.912Z,18.60
2017-11-20T08:05:33.868Z,15.70
2017-11-20T08:06:33.834Z,15.30
2017-11-20T08:07:33.788Z,20.40
2017-11-20T08:08:33.744Z,22.50
2017-11-20T08:09:33.703Z,18.30
2017-11-20T08:10:33.663Z,17.60
2017-11-20T08:11:33.630Z,23.30
2017-11-20T08:12:33.585Z,17.40
2017-11-20T08:13:33.570Z,17.10
2017-11-20T08:14:33.499Z,18.20
2017-11-20T08:15:33.461Z,18.30
2017-11-20T08:16:33.418Z,20.10
2017-11-20T08:17:33.376Z,15.90
2017-11-20T08:18:33.338Z,19.50
2017-11-20T08:19:33.295Z,16.40
2017-11-20T08:20:33.255Z,18.20
2017-11-20T08:21:33.215Z,18.60
2017-11-20T08:22:33.178Z,15.10
2017-11-20T08:23:33.138Z,19.80
2017-11-20T08:24:33.101Z,16.00
2017-11-20T08:25:33.054Z,18.50
2017-11-20T08:26:33.019Z,17.10
2017-11-20T08:27:32.978Z,20.40
2017-11-20T08:28:32.935Z,18.10
2017-11-20T08:29:32.913Z,21.90
2017-11-20T08:30:32.866Z,17.40
2017-11-20T08:31:32.835Z,19.40
2017-11-20T08:32:32.766Z,17.50
2017-11-20T08:33:32.724Z,20.00
2017-11-20T08:34:32.688Z,20.30
2017-11-20T08:35:32.652Z,23.10
2017-11-20T08:36:32.618Z,18.10
2017-11-20T08:37:32.563Z,18.00
2017-11-20T08:38:32.530Z,16.60
2017-11-20T08:39:34.134Z,18.10
2017-11-20T08:40:32.445Z,18.70
2017-11-20T08:41:32.406Z,16.10
2017-11-20T08:42:32.373Z,16.70
2017-11-20T08:43:32.322Z,14.40
2017-11-20T08:44:32.282Z,15.50
2017-11-20T08:45:32.246Z,17.50
2017-11-20T08:46:32.197Z,17.10
2017-11-20T08:47:32.157Z,18.20
2017-11-20T08:48:32.116Z,19.20
2017-11-20T08:49:32.089Z,16.30
2017-11-20T08:50:32.173Z,18.30
2017-11-20T08:51:32.043Z,11.10
2017-11-20T08:52:31.955Z,18.20
2017-11-20T08:53:31.939Z,13.00
2017-11-20T08:54:31.880Z,25.00
2017-11-20T08:55:31.833Z,21.00
2017-11-20T08:56:31.792Z,15.50
2017-11-20T08:57:31.752Z,16.60
2017-11-20T08:58:31.720Z,20.40
2017-11-20T08:59:31.671Z,17.50
2017-11-20T09:00:31.632Z,18.10
2017-11-20T09:01:31.592Z,23.70
2017-11-20T09:02:31.567Z,15.50
2017-11-20T09:03:31.556Z,17.00
2017-11-20T09:04:31.479Z,15.50
2017-11-20T09:05:31.443Z,18.80
2017-11-20T09:06:31.392Z,13.90
2017-11-20T09:07:31.354Z,13.70
2017-11-20T09:08:31.320Z,16.30
2017-11-20T09:09:31.306Z,17.60
2017-11-20T09:10:31.247Z,14.10
2017-11-20T09:11:31.190Z,18.00
2017-11-20T09:12:31.150Z,16.20
2017-11-20T09:13:31.124Z,15.40
2017-11-20T09:14:31.078Z,16.20
2017-11-20T09:15:31.036Z,11.20
2017-11-20T09:16:31.007Z,17.40
2017-11-20T09:17:30.952Z,15.10
2017-11-20T09:18:30.909Z,13.00
2017-11-20T09:19:30.910Z,13.30
2017-11-20T09:20:30.844Z,14.40
2017-11-20T09:21:30.856Z,12.90
2017-11-20T09:22:30.830Z,16.80
2017-11-20T09:23:30.738Z,14.00
2017-11-20T09:24:30.696Z,13.20
2017-11-20T09:25:30.638Z,13.30
2017-11-20T09:26:30.608Z,14.50
2017-11-20T09:27:30.550Z,14.60
2017-11-20T09:28:30.511Z,15.20
2017-11-20T09:29:30.486Z,13.60
2017-11-20T09:30:30.435Z,14.60
2017-11-20T09:31:30.399Z,14.40
2017-11-20T09:32:30.372Z,20.20
2017-11-20T09:33:30.336Z,16.80
2017-11-20T09:34:30.274Z,19.30
2017-11-20T09:35:30.257Z,14.90
2017-11-20T09:36:31.123Z,17.10
2017-11-20T09:37:32.016Z,15.10
2017-11-20T09:38:30.124Z,12.20
2017-11-20T09:39:30.077Z,13.10
2017-11-20T09:40:30.038Z,15.90
2017-11-20T09:41:30.002Z,13.70
2017-11-20T09:42:29.969Z,17.90
2017-11-20T09:43:29.914Z,15.50
2017-11-20T09:44:29.877Z,16.80
2017-11-20T09:45:29.834Z,19.10
2017-11-20T09:46:29.792Z,11.40
2017-11-20T09:47:29.751Z,11.40
2017-11-20T09:48:29.711Z,12.10
2017-11-20T09:49:29.681Z,13.40
2017-11-20T09:50:29.636Z,15.30
2017-11-20T09:51:29.592Z,13.80
2017-11-20T09:52:29.554Z,18.00
2017-11-20T09:53:29.513Z,12.20
2017-11-20T09:54:29.474Z,13.50
2017-11-20T09:55:29.431Z,12.50
2017-11-20T09:56:29.390Z,13.70
2017-11-20T09:57:29.358Z,11.80
2017-11-20T09:58:29.312Z,9.30
2017-11-20T09:59:29.272Z,15.10
2017-11-20T10:00:29.257Z,9.30
2017-11-20T10:01:29.198Z,14.80
2017-11-20T10:02:29.151Z,18.70
2017-11-20T10:03:29.114Z,13.90
2017-11-20T10:04:29.073Z,14.80
2017-11-20T10:05:29.038Z,11.90
2017-11-20T10:06:28.998Z,13.50
2017-11-20T10:07:28.963Z,11.90
2017-11-20T10:08:28.913Z,11.70
2017-11-20T10:09:28.873Z,14.00
2017-11-20T10:10:28.834Z,11.80
2017-11-20T10:11:28.800Z,15.50
2017-11-20T10:12:28.763Z,10.90
2017-11-20T10:13:28.719Z,11.80
2017-11-20T10:14:28.686Z,12.20
2017-11-20T10:15:28.642Z,10.20
2017-11-20T10:16:28.598Z,14.40
2017-11-20T10:17:28.558Z,11.50
2017-11-20T10:18:28.523Z,13.50
2017-11-20T10:19:28.482Z,15.00
2017-11-20T10:20:28.443Z,11.80
2017-11-20T10:21:28.438Z,11.40
2017-11-20T10:22:28.370Z,12.90
2017-11-20T10:23:28.325Z,11.50
2017-11-20T10:24:28.281Z,12.10
2017-11-20T10:25:28.241Z,13.00
2017-11-20T10:26:28.201Z,12.70
2017-11-20T10:27:28.161Z,13.00
2017-11-20T10:28:28.136Z,13.50
2017-11-20T10:29:28.096Z,19.00
2017-11-20T10:30:28.043Z,14.70
2017-11-20T10:31:28.338Z,10.50
2017-11-20T10:32:27.965Z,14.80
2017-11-20T10:33:27.930Z,17.00
2017-11-20T10:34:27.886Z,14.60
2017-11-20T10:35:27.854Z,14.20
2017-11-20T10:36:27.806Z,13.50
2017-11-20T10:37:27.770Z,9.60
2017-11-20T10:38:27.736Z,13.50
2017-11-20T10:39:27.699Z,15.30
2017-11-20T10:40:27.645Z,13.40
2017-11-20T10:41:27.611Z,10.70
2017-11-20T10:42:27.569Z,16.50
2017-11-20T10:43:27.533Z,12.40
2017-11-20T10:44:27.490Z,12.30
2017-11-20T10:45:27.452Z,13.30
2017-11-20T10:46:27.422Z,13.90
2017-11-20T10:47:27.386Z,14.00
2017-11-20T10:48:27.370Z,11.90
2017-11-20T10:49:27.294Z,10.20
2017-11-20T10:50:27.257Z,12.60
2017-11-20T10:51:27.216Z,12.10
2017-11-20T10:52:27.176Z,16.00
2017-11-20T10:53:27.151Z,11.30
2017-11-20T10:54:27.107Z,8.90
2017-11-20T10:55:27.055Z,13.00
2017-11-20T10:56:27.018Z,13.00
2017-11-20T10:57:26.984Z,11.40
2017-11-20T10:58:26.945Z,11.80
2017-11-20T10:59:26.910Z,13.40
2017-11-20T11:00:26.866Z,12.60
2017-11-20T11:01:26.837Z,13.40
2017-11-20T11:02:26.784Z,13.20
2017-11-20T11:03:26.759Z,11.10
2017-11-20T11:04:26.716Z,16.80
2017-11-20T11:05:26.667Z,14.40
2017-11-20T11:06:26.653Z,10.40
2017-11-20T11:07:26.638Z,10.90
2017-11-20T11:08:26.602Z,14.50
2017-11-20T11:09:26.507Z,14.90
2017-11-20T11:10:26.467Z,15.00
2017-11-20T11:11:26.445Z,9.40
2017-11-20T11:12:26.390Z,14.50
2017-11-20T11:13:26.351Z,9.60
2017-11-20T11:14:26.318Z,15.20
2017-11-20T11:15:26.295Z,14.50
2017-11-20T11:16:26.238Z,16.00
2017-11-20T11:17:26.201Z,10.90
2017-11-20T11:18:26.155Z,15.10
2017-11-20T11:19:26.124Z,10.90
2017-11-20T11:20:26.071Z,10.00
2017-11-20T11:21:26.038Z,14.70
2017-11-20T11:22:25.991Z,10.40
2017-11-20T11:23:25.956Z,10.10
2017-11-20T11:24:25.922Z,9.00
2017-11-20T11:25:25.888Z,13.00
2017-11-20T11:26:25.837Z,16.10
2017-11-20T11:27:25.802Z,11.10
2017-11-20T11:28:25.772Z,12.60
2017-11-20T11:29:25.742Z,15.50
2017-11-20T11:30:25.680Z,11.30
2017-11-20T11:31:25.640Z,8.50
2017-11-20T11:32:25.605Z,9.40
2017-11-20T11:33:25.560Z,12.50
2017-11-20T11:34:25.527Z,13.80
2017-11-20T11:35:25.540Z,12.60
2017-11-20T11:36:25.446Z,13.70
2017-11-20T11:37:25.425Z,11.10
2017-11-20T11:38:25.377Z,13.80
2017-11-20T11:39:25.334Z,13.90
2017-11-20T11:40:25.288Z,9.10
2017-11-20T11:41:25.277Z,13.80
2017-11-20T11:42:25.217Z,12.50
2017-11-20T11:43:25.170Z,16.90
2017-11-20T11:44:25.137Z,12.00
2017-11-20T11:45:25.102Z,9.80
2017-11-20T11:46:25.069Z,11.50
2017-11-20T11:47:25.016Z,9.20
2017-11-20T11:48:24.994Z,9.60
2017-11-20T11:49:24.939Z,11.30
2017-11-20T11:50:25.037Z,12.70
2017-11-20T11:51:24.993Z,12.60
2017-11-20T11:52:24.815Z,11.30
2017-11-20T11:53:24.820Z,12.20
2017-11-20T11:54:24.753Z,12.20
2017-11-20T11:55:24.762Z,9.40
2017-11-20T11:56:24.658Z,9.20
2017-11-20T11:57:24.620Z,8.90
2017-11-20T11:58:24.589Z,12.30
2017-11-20T11:59:24.545Z,12.00
2017-11-20T12:00:24.520Z,10.40
2017-11-20T12:01:24.510Z,9.30
2017-11-20T12:02:24.419Z,12.20
2017-11-20T12:03:24.401Z,13.70
2017-11-20T12:04:24.370Z,10.30
2017-11-20T12:05:24.295Z,11.80
2017-11-20T12:06:24.262Z,11.80
2017-11-20T12:07:24.245Z,10.20
2017-11-20T12:08:27.014Z,7.80
2017-11-20T12:09:24.155Z,11.50
2017-11-20T12:10:24.103Z,12.20
2017-11-20T12:11:26.022Z,10.00
2017-11-20T12:12:24.016Z,12.00
2017-11-20T12:13:23.996Z,6.40
2017-11-20T12:14:23.941Z,10.40
2017-11-20T12:15:23.901Z,9.20
2017-11-20T12:16:23.863Z,11.50
2017-11-20T12:17:23.825Z,12.90
2017-11-20T12:18:23.791Z,9.30
2017-11-20T12:19:23.743Z,12.20
2017-11-20T12:20:23.720Z,9.30
2017-11-20T12:21:23.673Z,11.10
2017-11-20T12:22:23.624Z,8.30
2017-11-20T12:23:23.593Z,8.50
2017-11-20T12:24:23.549Z,6.20
2017-11-20T12:25:23.507Z,10.20
2017-11-20T12:26:23.476Z,10.00
2017-11-20T12:27:23.432Z,9.10
2017-11-20T12:28:23.398Z,9.50
2017-11-20T12:29:23.349Z,9.20
2017-11-20T12:30:23.327Z,11.60
2017-11-20T12:31:23.278Z,9.40
2017-11-20T12:32:23.243Z,6.40
2017-11-20T12:33:23.191Z,9.80
2017-11-20T12:34:23.150Z,7.70
2017-11-20T12:35:23.118Z,10.60
2017-11-20T12:36:23.084Z,8.10
2017-11-20T12:37:23.032Z,9.20
2017-11-20T12:38:22.994Z,9.90
2017-11-20T12:39:22.955Z,9.20
2017-11-20T12:40:22.918Z,7.80
2017-11-20T12:41:22.878Z,10.00
2017-11-20T12:42:22.833Z,10.20
2017-11-20T12:43:22.805Z,6.70
2017-11-20T12:44:22.753Z,7.50
2017-11-20T12:45:22.717Z,9.30
2017-11-20T12:46:22.693Z,9.60
2017-11-20T12:47:22.653Z,9.80
2017-11-20T12:48:22.638Z,8.40
2017-11-20T12:49:22.558Z,8.60
2017-11-20T12:50:22.521Z,7.90
2017-11-20T12:51:22.482Z,11.20
2017-11-20T12:52:22.453Z,7.20
2017-11-20T12:53:22.437Z,11.40
2017-11-20T12:54:22.360Z,11.90
2017-11-20T12:55:22.323Z,7.40
2017-11-20T12:56:22.282Z,9.00
2017-11-20T12:57:22.253Z,9.30
2017-11-20T12:58:22.201Z,7.20
2017-11-20T12:59:22.167Z,11.10
2017-11-20T13:00:22.125Z,7.20
2017-11-20T13:01:22.090Z,7.10
2017-11-20T13:02:22.054Z,8.70
2017-11-20T13:03:22.039Z,6.80